Airport Name : Dundee

Other Name : Dundee

ICAO : EGPN

IATA : DND

FAA :

Latitude : 56.452499

Longitude : -3.025833

Country : United Kingdom

Local Date and Time : 25 Jun 2024 07:27

 

TAF (Terminal Aerodrome Forecast)

TAF EGPN 250545Z 2506/2515 VRB03KT 9999 FEW020 SCT035 BECMG 2512/2515 09010KT

 

METAR (METeorological Aerodrome Report)

EGPN 250620Z 25002KT 9999 FEW020 17/14 Q1017

EGPN 250550Z 27003KT 250V310 9999 FEW020 17/13 Q1016

EGPN 250520Z 30003KT 9999 FEW020 16/13 Q1016